createdAt,value
2023-02-09T00:01:26.390Z,4.43
2023-02-09T00:03:52.829Z,4.42
2023-02-09T00:06:19.256Z,4.39
2023-02-09T00:08:45.624Z,4.37
2023-02-09T00:11:11.981Z,4.40
2023-02-09T00:13:38.353Z,4.36
2023-02-09T00:16:04.869Z,4.37
2023-02-09T00:18:31.247Z,4.34
2023-02-09T00:20:57.645Z,4.34
2023-02-09T00:23:24.009Z,4.34
2023-02-09T00:25:50.386Z,4.34
2023-02-09T00:28:17.038Z,4.29
2023-02-09T00:30:43.717Z,4.29
2023-02-09T00:33:10.528Z,4.30
2023-02-09T00:35:36.896Z,4.30
2023-02-09T00:38:03.245Z,4.29
2023-02-09T00:40:29.601Z,4.28
2023-02-09T00:42:55.963Z,4.26
2023-02-09T00:45:22.322Z,4.28
2023-02-09T00:47:48.691Z,4.24
2023-02-09T00:50:15.057Z,4.26
2023-02-09T00:52:41.638Z,4.24
2023-02-09T00:55:08.013Z,4.24
2023-02-09T00:57:34.411Z,4.23
2023-02-09T01:00:00.768Z,4.23
2023-02-09T01:02:27.114Z,4.23
2023-02-09T01:04:53.492Z,4.24
2023-02-09T01:07:20.092Z,4.22
2023-02-09T01:09:46.463Z,4.22
2023-02-09T01:12:12.837Z,4.20
2023-02-09T01:14:39.214Z,4.20
2023-02-09T01:17:05.588Z,4.17
2023-02-09T01:19:31.971Z,4.17
2023-02-09T01:21:58.525Z,4.19
2023-02-09T01:24:24.878Z,4.16
2023-02-09T01:26:51.467Z,4.16
2023-02-09T01:29:17.829Z,4.16
2023-02-09T01:31:44.300Z,4.15
2023-02-09T01:34:10.918Z,4.15
2023-02-09T01:36:38.318Z,4.13
2023-02-09T01:39:04.687Z,4.13
2023-02-09T01:41:31.285Z,4.12
2023-02-09T01:43:57.658Z,4.10
2023-02-09T01:46:24.301Z,4.12
2023-02-09T01:48:50.705Z,4.10
2023-02-09T01:51:17.062Z,4.10
2023-02-09T01:53:43.401Z,4.10
2023-02-09T01:56:09.770Z,4.10
2023-02-09T01:58:36.118Z,4.15
2023-02-09T02:01:02.487Z,4.12
2023-02-09T02:03:29.282Z,4.13
2023-02-09T02:05:55.661Z,4.15
2023-02-09T02:08:22.086Z,4.16
2023-02-09T02:10:48.462Z,4.16
2023-02-09T02:13:14.831Z,4.15
2023-02-09T02:15:41.227Z,4.15
2023-02-09T02:18:08.309Z,4.13
2023-02-09T02:20:34.666Z,4.15
2023-02-09T02:23:01.054Z,4.12
2023-02-09T02:25:27.410Z,4.12
2023-02-09T02:27:53.817Z,4.12
2023-02-09T02:30:20.457Z,4.10
2023-02-09T02:32:46.818Z,4.09
2023-02-09T02:35:13.365Z,4.05
2023-02-09T02:37:39.763Z,4.07
2023-02-09T02:40:06.134Z,4.05
2023-02-09T02:42:32.473Z,4.05
2023-02-09T02:44:58.813Z,4.06
2023-02-09T02:47:25.148Z,4.03
2023-02-09T02:49:51.532Z,4.06
2023-02-09T02:52:17.882Z,4.02
2023-02-09T02:54:44.217Z,4.02
2023-02-09T02:57:10.544Z,4.01
2023-02-09T02:59:36.880Z,3.99
2023-02-09T03:02:03.221Z,4.01
2023-02-09T03:04:29.592Z,4.01
2023-02-09T03:06:55.965Z,3.96
2023-02-09T03:09:22.310Z,4.01
2023-02-09T03:11:48.643Z,3.98
2023-02-09T03:14:14.978Z,3.96
2023-02-09T03:16:41.524Z,3.96
2023-02-09T03:19:07.852Z,3.99
2023-02-09T03:21:34.190Z,3.98
2023-02-09T03:24:00.545Z,3.94
2023-02-09T03:26:26.888Z,3.96
2023-02-09T03:28:53.449Z,3.95
2023-02-09T03:31:19.926Z,3.98
2023-02-09T03:33:46.345Z,3.94
2023-02-09T03:36:12.692Z,3.92
2023-02-09T03:38:39.052Z,3.89
2023-02-09T03:41:07.966Z,3.91
2023-02-09T03:43:34.428Z,3.88
2023-02-09T03:46:00.799Z,3.91
2023-02-09T03:48:27.130Z,3.89
2023-02-09T03:50:53.475Z,3.91
2023-02-09T03:53:19.793Z,3.91
2023-02-09T03:55:46.130Z,3.88
2023-02-09T03:58:12.460Z,3.89
2023-02-09T04:00:38.934Z,3.88
2023-02-09T04:03:05.315Z,3.89
2023-02-09T04:05:31.649Z,3.85
2023-02-09T04:07:58.194Z,3.82
2023-02-09T04:10:24.518Z,3.86
2023-02-09T04:12:50.864Z,3.85
2023-02-09T04:15:17.196Z,3.85
2023-02-09T04:17:43.535Z,3.85
2023-02-09T04:20:10.128Z,3.84
2023-02-09T04:22:36.449Z,3.82
2023-02-09T04:25:02.999Z,3.85
2023-02-09T04:27:29.323Z,3.81
2023-02-09T04:29:55.879Z,3.84
2023-02-09T04:32:22.217Z,3.84
2023-02-09T04:34:48.540Z,3.82
2023-02-09T04:37:14.947Z,3.79
2023-02-09T04:39:41.318Z,3.82
2023-02-09T04:42:07.634Z,3.81
2023-02-09T04:44:34.004Z,3.84
2023-02-09T04:47:00.340Z,3.82
2023-02-09T04:49:26.673Z,3.84
2023-02-09T04:51:53.013Z,3.86
2023-02-09T04:54:19.352Z,3.88
2023-02-09T04:56:45.705Z,3.86
2023-02-09T04:59:12.026Z,3.88
2023-02-09T05:01:38.595Z,3.85
2023-02-09T05:04:04.932Z,3.85
2023-02-09T05:06:31.496Z,3.85
2023-02-09T05:08:57.857Z,3.82
2023-02-09T05:11:25.571Z,3.85
2023-02-09T05:13:52.088Z,3.84
2023-02-09T05:16:18.503Z,3.85
2023-02-09T05:18:44.889Z,3.79
2023-02-09T05:21:11.242Z,3.81
2023-02-09T05:23:37.596Z,3.79
2023-02-09T05:26:03.943Z,3.81
2023-02-09T05:28:30.346Z,3.77
2023-02-09T05:30:56.744Z,3.77
2023-02-09T05:33:23.098Z,3.77
2023-02-09T05:35:49.467Z,3.77
2023-02-09T05:38:15.919Z,3.78
2023-02-09T05:40:44.202Z,3.75
2023-02-09T05:43:11.444Z,3.77
2023-02-09T05:45:37.797Z,3.74
2023-02-09T05:48:04.367Z,3.77
2023-02-09T05:50:30.683Z,3.75
2023-02-09T05:52:57.013Z,3.74
2023-02-09T05:55:23.351Z,3.74
2023-02-09T05:57:49.708Z,3.74
2023-02-09T06:00:16.054Z,3.73
2023-02-09T06:02:42.493Z,3.73
2023-02-09T06:05:08.885Z,3.71
2023-02-09T06:07:35.264Z,3.70
2023-02-09T06:10:01.630Z,3.71
2023-02-09T06:12:28.219Z,3.71
2023-02-09T06:14:54.565Z,3.70
2023-02-09T06:17:20.913Z,3.70
2023-02-09T06:19:47.254Z,3.70
2023-02-09T06:22:13.621Z,3.70
2023-02-09T06:24:39.993Z,3.65
2023-02-09T06:27:06.372Z,3.67
2023-02-09T06:29:32.717Z,3.65
2023-02-09T06:31:59.129Z,3.68
2023-02-09T06:34:25.512Z,3.64
2023-02-09T06:36:51.845Z,3.68
2023-02-09T06:39:18.193Z,3.63
2023-02-09T06:41:44.533Z,3.67
2023-02-09T06:44:11.094Z,3.67
2023-02-09T06:46:37.481Z,3.63
2023-02-09T06:49:03.851Z,3.63
2023-02-09T06:51:30.335Z,3.61
2023-02-09T06:53:56.848Z,3.63
2023-02-09T06:56:23.216Z,3.63
2023-02-09T06:58:49.538Z,3.63
2023-02-09T07:01:15.997Z,3.64
2023-02-09T07:03:42.659Z,3.65
2023-02-09T07:06:09.042Z,3.61
2023-02-09T07:08:35.375Z,3.61
2023-02-09T07:11:01.718Z,3.61
2023-02-09T07:13:28.047Z,3.61
2023-02-09T07:15:54.451Z,3.61
2023-02-09T07:18:20.851Z,3.60
2023-02-09T07:20:47.436Z,3.58
2023-02-09T07:23:13.949Z,3.60
2023-02-09T07:25:40.272Z,3.60
2023-02-09T07:28:06.656Z,3.65
2023-02-09T07:30:33.019Z,3.61
2023-02-09T07:33:00.121Z,3.64
2023-02-09T07:35:26.483Z,3.64
2023-02-09T07:37:52.815Z,3.74
2023-02-09T07:40:19.211Z,3.81
2023-02-09T07:42:45.567Z,3.89
2023-02-09T07:45:13.920Z,3.98
2023-02-09T07:47:40.301Z,4.07
2023-02-09T07:50:06.670Z,4.15
2023-02-09T07:52:32.998Z,4.19
2023-02-09T07:54:59.350Z,4.24
2023-02-09T07:57:25.681Z,4.30
2023-02-09T07:59:52.271Z,4.34
2023-02-09T08:02:18.870Z,4.39
2023-02-09T08:04:45.258Z,4.44
2023-02-09T08:07:11.609Z,4.46
2023-02-09T08:09:37.948Z,4.51
2023-02-09T08:12:04.321Z,4.53
2023-02-09T08:14:30.670Z,4.56
2023-02-09T08:16:57.029Z,4.57
2023-02-09T08:19:24.033Z,4.61
2023-02-09T08:21:50.383Z,4.61
2023-02-09T08:24:16.935Z,4.67
2023-02-09T08:26:43.260Z,4.68
2023-02-09T08:29:09.843Z,4.72
2023-02-09T08:31:36.493Z,4.74
2023-02-09T08:34:03.363Z,4.77
2023-02-09T08:36:29.708Z,4.81
2023-02-09T08:38:56.281Z,4.84
2023-02-09T08:41:22.622Z,4.85
2023-02-09T08:43:49.195Z,4.85
2023-02-09T08:46:15.646Z,4.92
2023-02-09T08:48:43.048Z,4.91
2023-02-09T08:51:09.362Z,4.93
2023-02-09T08:53:36.074Z,4.93
2023-02-09T08:56:02.431Z,4.95
2023-02-09T08:58:28.872Z,4.98
2023-02-09T09:00:55.256Z,4.99
2023-02-09T09:03:21.645Z,4.99
2023-02-09T09:05:48.266Z,5.02
2023-02-09T09:08:15.047Z,5.02
2023-02-09T09:10:41.399Z,5.05
2023-02-09T09:13:07.749Z,5.04
2023-02-09T09:15:34.090Z,5.08
2023-02-09T09:18:00.442Z,5.11
2023-02-09T09:20:26.771Z,5.08
2023-02-09T09:22:53.131Z,5.08
2023-02-09T09:25:19.739Z,5.11
2023-02-09T09:27:46.079Z,5.11
2023-02-09T09:30:12.669Z,5.11
2023-02-09T09:32:39.407Z,5.15
2023-02-09T09:35:06.182Z,5.13
2023-02-09T09:37:32.540Z,5.12
2023-02-09T09:39:58.894Z,5.05
2023-02-09T09:42:25.257Z,4.99
2023-02-09T09:44:51.583Z,4.95
2023-02-09T09:47:17.914Z,4.89
2023-02-09T09:49:44.251Z,4.84
2023-02-09T09:52:10.596Z,4.80
2023-02-09T09:54:36.937Z,4.80
2023-02-09T09:57:03.289Z,4.70
2023-02-09T09:59:29.650Z,4.70
2023-02-09T10:01:56.022Z,4.63
2023-02-09T10:04:22.404Z,4.58
2023-02-09T10:06:48.979Z,4.56
2023-02-09T10:09:16.568Z,4.53
2023-02-09T10:11:42.915Z,4.49
2023-02-09T10:14:09.240Z,4.47
2023-02-09T10:16:36.128Z,4.43
2023-02-09T10:19:02.479Z,4.39
2023-02-09T10:21:28.822Z,4.36
2023-02-09T10:23:55.172Z,4.29
2023-02-09T10:26:23.014Z,4.32
2023-02-09T10:28:49.365Z,4.28
2023-02-09T10:31:15.767Z,4.28
2023-02-09T10:33:42.360Z,4.28
2023-02-09T10:36:08.753Z,4.37
2023-02-09T10:38:35.100Z,4.40
2023-02-09T10:41:01.423Z,4.40
2023-02-09T10:43:27.749Z,4.50
2023-02-09T10:45:54.101Z,4.53
2023-02-09T10:48:20.446Z,4.60
2023-02-09T10:50:46.804Z,4.63
2023-02-09T10:53:13.166Z,4.65
2023-02-09T10:55:39.630Z,4.65
2023-02-09T10:58:06.101Z,4.71
2023-02-09T11:00:32.434Z,4.72
2023-02-09T11:02:58.787Z,4.77
2023-02-09T11:05:25.136Z,4.77
2023-02-09T11:07:51.490Z,4.82
2023-02-09T11:10:17.882Z,4.81
2023-02-09T11:12:44.237Z,4.84
2023-02-09T11:15:10.603Z,4.89
2023-02-09T11:17:36.943Z,4.91
2023-02-09T11:20:03.291Z,4.89
2023-02-09T11:22:29.870Z,4.93
2023-02-09T11:24:56.217Z,4.95
2023-02-09T11:27:23.755Z,5.01
2023-02-09T11:29:50.262Z,5.07
2023-02-09T11:32:16.585Z,5.08
2023-02-09T11:34:42.933Z,5.07
2023-02-09T11:37:09.287Z,5.12
2023-02-09T11:39:36.975Z,5.16
2023-02-09T11:42:04.611Z,5.16
2023-02-09T11:44:30.948Z,5.22
2023-02-09T11:46:57.276Z,5.20
2023-02-09T11:49:23.842Z,5.23
2023-02-09T11:51:50.195Z,5.25
2023-02-09T11:54:16.540Z,5.29
2023-02-09T11:56:42.841Z,5.25
2023-02-09T11:59:09.207Z,5.29
2023-02-09T12:01:35.532Z,5.30
2023-02-09T12:04:02.098Z,5.33
2023-02-09T12:06:28.484Z,5.38
2023-02-09T12:08:54.884Z,5.35
2023-02-09T12:11:21.246Z,5.36
2023-02-09T12:13:49.061Z,5.36
2023-02-09T12:16:16.928Z,5.39
2023-02-09T12:18:43.301Z,5.42
2023-02-09T12:21:09.664Z,5.44
2023-02-09T12:23:35.989Z,5.40
2023-02-09T12:26:02.344Z,5.32
2023-02-09T12:28:28.765Z,5.23
2023-02-09T12:30:55.152Z,5.18
2023-02-09T12:33:21.530Z,5.08
2023-02-09T12:35:47.880Z,5.11
2023-02-09T12:38:14.448Z,5.07
2023-02-09T12:40:40.778Z,5.04
2023-02-09T12:43:07.094Z,5.07
2023-02-09T12:45:33.700Z,5.04
2023-02-09T12:48:00.226Z,4.99
2023-02-09T12:50:26.565Z,4.96
2023-02-09T12:52:52.964Z,4.96
2023-02-09T12:55:19.294Z,4.91
2023-02-09T12:57:47.431Z,4.92
2023-02-09T13:00:14.141Z,4.92
2023-02-09T13:02:40.482Z,4.88
2023-02-09T13:05:06.821Z,4.85
2023-02-09T13:07:33.172Z,4.84
2023-02-09T13:09:59.494Z,4.81
2023-02-09T13:12:25.834Z,4.80
2023-02-09T13:14:52.170Z,4.78
2023-02-09T13:17:18.741Z,4.80
2023-02-09T13:19:47.888Z,4.74
2023-02-09T13:22:14.566Z,4.72
2023-02-09T13:24:40.983Z,4.68
2023-02-09T13:27:08.643Z,4.68
2023-02-09T13:29:35.102Z,4.67
2023-02-09T13:32:01.531Z,4.63
2023-02-09T13:34:27.988Z,4.65
2023-02-09T13:36:55.060Z,4.63
2023-02-09T13:39:21.487Z,4.60
2023-02-09T13:41:47.857Z,4.60
2023-02-09T13:44:14.239Z,4.61
2023-02-09T13:46:40.588Z,4.63
2023-02-09T13:49:07.350Z,4.58
2023-02-09T13:51:33.753Z,4.63
2023-02-09T13:54:00.452Z,4.65
2023-02-09T13:56:26.876Z,4.78
2023-02-09T13:58:53.231Z,4.84
2023-02-09T14:01:19.623Z,4.89
2023-02-09T14:03:57.399Z,4.95
2023-02-09T14:06:24.475Z,5.07
2023-02-09T14:08:50.842Z,5.11
2023-02-09T14:11:17.191Z,5.16
2023-02-09T14:13:43.527Z,5.18
2023-02-09T14:16:09.897Z,5.29
2023-02-09T14:18:36.246Z,5.30
2023-02-09T14:21:02.833Z,5.35
2023-02-09T14:23:29.184Z,5.39
2023-02-09T14:25:55.533Z,5.44
2023-02-09T14:28:21.911Z,5.46
2023-02-09T14:30:48.347Z,5.50
2023-02-09T14:33:14.707Z,5.53
2023-02-09T14:35:41.042Z,5.54
2023-02-09T14:38:07.376Z,5.59
2023-02-09T14:40:33.710Z,5.63
2023-02-09T14:43:00.040Z,5.68
2023-02-09T14:45:26.442Z,5.71
2023-02-09T14:47:52.798Z,5.74
2023-02-09T14:50:19.150Z,5.75
2023-02-09T14:52:48.344Z,5.80
2023-02-09T14:55:14.674Z,5.78
2023-02-09T14:57:41.026Z,5.83
2023-02-09T15:00:07.370Z,5.84
2023-02-09T15:02:33.805Z,5.84
2023-02-09T15:05:00.309Z,5.88
2023-02-09T15:07:26.655Z,5.91
2023-02-09T15:09:52.993Z,5.94
2023-02-09T15:12:19.336Z,5.94
2023-02-09T15:14:45.705Z,5.97
2023-02-09T15:17:12.074Z,5.94
2023-02-09T15:19:38.456Z,5.87
2023-02-09T15:22:07.669Z,5.77
2023-02-09T15:24:34.428Z,5.67
2023-02-09T15:27:00.793Z,5.64
2023-02-09T15:29:27.353Z,5.57
2023-02-09T15:31:53.696Z,5.56
2023-02-09T15:34:20.030Z,5.49
2023-02-09T15:36:46.397Z,5.49
2023-02-09T15:39:12.762Z,5.44
2023-02-09T15:41:39.096Z,5.42
2023-02-09T15:44:05.396Z,5.40
2023-02-09T15:46:31.815Z,5.38
2023-02-09T15:48:58.175Z,5.35
2023-02-09T15:51:24.752Z,5.32
2023-02-09T15:53:51.124Z,5.35
2023-02-09T15:56:17.526Z,5.32
2023-02-09T15:58:43.880Z,5.30
2023-02-09T16:01:10.278Z,5.30
2023-02-09T16:03:36.665Z,5.28
2023-02-09T16:06:03.028Z,5.26
2023-02-09T16:08:29.416Z,5.25
2023-02-09T16:10:55.777Z,5.26
2023-02-09T16:13:22.153Z,5.19
2023-02-09T16:15:48.614Z,5.22
2023-02-09T16:18:15.047Z,5.20
2023-02-09T16:20:41.454Z,5.18
2023-02-09T16:23:19.573Z,5.16
2023-02-09T16:25:47.352Z,5.15
2023-02-09T16:28:13.810Z,5.13
2023-02-09T16:30:40.198Z,5.09
2023-02-09T16:33:06.594Z,5.08
2023-02-09T16:35:32.976Z,5.11
2023-02-09T16:37:59.342Z,5.08
2023-02-09T16:40:25.699Z,5.05
2023-02-09T16:42:52.072Z,5.07
2023-02-09T16:45:18.438Z,5.05
2023-02-09T16:47:44.782Z,5.04
2023-02-09T16:50:11.168Z,5.02
2023-02-09T16:52:37.502Z,5.01
2023-02-09T16:55:03.864Z,4.99
2023-02-09T16:57:30.210Z,4.98
2023-02-09T16:59:56.556Z,4.98
2023-02-09T17:02:23.160Z,4.96
2023-02-09T17:04:49.498Z,4.92
2023-02-09T17:07:15.830Z,4.92
2023-02-09T17:09:42.374Z,4.91
2023-02-09T17:12:08.715Z,4.91
2023-02-09T17:14:35.081Z,4.88
2023-02-09T17:17:02.418Z,4.88
2023-02-09T17:19:35.680Z,4.89
2023-02-09T17:22:08.653Z,4.82
2023-02-09T17:24:35.035Z,4.80
2023-02-09T17:27:01.375Z,4.80
2023-02-09T17:29:27.939Z,4.78
2023-02-09T17:31:54.342Z,4.81
2023-02-09T17:34:20.741Z,4.81
2023-02-09T17:36:47.124Z,4.80
2023-02-09T17:39:13.449Z,4.75
2023-02-09T17:41:39.797Z,4.77
2023-02-09T17:44:19.599Z,4.75
2023-02-09T17:46:50.481Z,4.77
2023-02-09T17:49:16.871Z,4.77
2023-02-09T17:51:43.219Z,4.74
2023-02-09T17:54:09.585Z,4.72
2023-02-09T17:56:36.130Z,4.72
2023-02-09T17:59:02.468Z,4.72
2023-02-09T18:01:28.899Z,4.72
2023-02-09T18:03:55.323Z,4.71
2023-02-09T18:06:21.689Z,4.70
2023-02-09T18:08:48.251Z,4.67
2023-02-09T18:11:14.589Z,4.67
2023-02-09T18:13:40.918Z,4.65
2023-02-09T18:16:07.243Z,4.67
2023-02-09T18:18:33.579Z,4.64
2023-02-09T18:21:00.159Z,4.64
2023-02-09T18:23:26.497Z,4.61
2023-02-09T18:25:52.839Z,4.60
2023-02-09T18:28:19.243Z,4.63
2023-02-09T18:30:45.629Z,4.63
2023-02-09T18:33:11.990Z,4.60
2023-02-09T18:35:38.400Z,4.61
2023-02-09T18:38:04.970Z,4.60
2023-02-09T18:40:31.307Z,4.58
2023-02-09T18:42:57.872Z,4.57
2023-02-09T18:45:24.197Z,4.58
2023-02-09T18:47:50.591Z,4.56
2023-02-09T18:50:16.931Z,4.56
2023-02-09T18:52:43.252Z,4.54
2023-02-09T18:55:09.605Z,4.56
2023-02-09T18:57:35.997Z,4.56
2023-02-09T19:00:02.337Z,4.53
2023-02-09T19:02:28.665Z,4.53
2023-02-09T19:04:54.994Z,4.51
2023-02-09T19:07:21.632Z,4.51
2023-02-09T19:09:47.952Z,4.50
2023-02-09T19:12:14.336Z,4.51
2023-02-09T19:14:40.703Z,4.51
2023-02-09T19:17:07.084Z,4.50
2023-02-09T19:19:33.497Z,4.49
2023-02-09T19:21:59.856Z,4.47
2023-02-09T19:24:26.186Z,4.47
2023-02-09T19:26:52.544Z,4.47
2023-02-09T19:29:19.087Z,4.49
2023-02-09T19:31:45.450Z,4.46
2023-02-09T19:34:12.013Z,4.47
2023-02-09T19:36:38.334Z,4.46
2023-02-09T19:39:04.651Z,4.44
2023-02-09T19:41:31.194Z,4.43
2023-02-09T19:43:57.535Z,4.44
2023-02-09T19:46:23.927Z,4.43
2023-02-09T19:48:50.509Z,4.44
2023-02-09T19:51:17.066Z,4.42
2023-02-09T19:53:43.396Z,4.42
2023-02-09T19:56:09.939Z,4.40
2023-02-09T19:58:36.289Z,4.42
2023-02-09T20:01:03.676Z,4.39
2023-02-09T20:03:30.020Z,4.42
2023-02-09T20:05:56.605Z,4.39
2023-02-09T20:08:22.951Z,4.40
2023-02-09T20:10:49.578Z,4.36
2023-02-09T20:13:16.103Z,4.42
2023-02-09T20:15:42.720Z,4.40
2023-02-09T20:18:09.089Z,4.37
2023-02-09T20:20:35.449Z,4.39
2023-02-09T20:23:01.796Z,4.37
2023-02-09T20:25:28.373Z,4.37
2023-02-09T20:27:54.911Z,4.36
2023-02-09T20:30:21.250Z,4.37
2023-02-09T20:32:47.571Z,4.39
2023-02-09T20:35:16.753Z,4.36
2023-02-09T20:37:43.101Z,4.40
2023-02-09T20:40:09.385Z,4.44
2023-02-09T20:42:35.717Z,4.54
2023-02-09T20:45:02.131Z,4.64
2023-02-09T20:47:28.476Z,4.74
2023-02-09T20:49:54.827Z,4.82
2023-02-09T20:52:21.174Z,4.89
2023-02-09T20:54:47.749Z,4.93
2023-02-09T20:57:14.323Z,4.98
2023-02-09T20:59:40.679Z,5.07
2023-02-09T21:02:07.121Z,5.11
2023-02-09T21:04:33.492Z,5.15
2023-02-09T21:07:00.061Z,5.22
2023-02-09T21:09:26.558Z,5.19
2023-02-09T21:11:53.195Z,5.26
2023-02-09T21:14:27.608Z,5.29
2023-02-09T21:16:59.285Z,5.29
2023-02-09T21:19:25.841Z,5.25
2023-02-09T21:21:52.178Z,5.16
2023-02-09T21:24:18.722Z,5.15
2023-02-09T21:26:45.061Z,5.05
2023-02-09T21:29:11.692Z,5.01
2023-02-09T21:31:38.121Z,4.99
2023-02-09T21:34:04.495Z,4.92
2023-02-09T21:36:30.825Z,4.92
2023-02-09T21:38:57.188Z,4.92
2023-02-09T21:41:23.542Z,4.87
2023-02-09T21:43:49.878Z,4.84
2023-02-09T21:46:16.627Z,4.81
2023-02-09T21:48:42.964Z,4.80
2023-02-09T21:51:09.476Z,4.75
2023-02-09T21:53:35.806Z,4.72
2023-02-09T21:56:02.163Z,4.71
2023-02-09T21:58:28.543Z,4.70
2023-02-09T22:00:55.369Z,4.68
2023-02-09T22:03:21.849Z,4.64
2023-02-09T22:05:48.185Z,4.61
2023-02-09T22:08:14.512Z,4.60
2023-02-09T22:10:40.873Z,4.60
2023-02-09T22:13:07.222Z,4.57
2023-02-09T22:15:33.561Z,4.56
2023-02-09T22:17:59.911Z,4.53
2023-02-09T22:20:26.255Z,4.54
2023-02-09T22:22:52.595Z,4.53
2023-02-09T22:25:18.915Z,4.51
2023-02-09T22:27:45.234Z,4.50
2023-02-09T22:30:11.581Z,4.49
2023-02-09T22:32:38.120Z,4.49
2023-02-09T22:35:04.485Z,4.46
2023-02-09T22:37:31.084Z,4.43
2023-02-09T22:39:57.418Z,4.43
2023-02-09T22:42:23.977Z,4.43
2023-02-09T22:44:50.330Z,4.40
2023-02-09T22:47:16.674Z,4.40
2023-02-09T22:49:43.239Z,4.40
2023-02-09T22:52:09.597Z,4.37
2023-02-09T22:54:35.931Z,4.36
2023-02-09T22:57:02.282Z,4.36
2023-02-09T22:59:29.558Z,4.37
2023-02-09T23:01:55.903Z,4.34
2023-02-09T23:04:22.330Z,4.34
2023-02-09T23:06:48.697Z,4.34
2023-02-09T23:09:15.036Z,4.34
2023-02-09T23:11:41.365Z,4.32
2023-02-09T23:14:09.930Z,4.32
2023-02-09T23:16:36.915Z,4.30
2023-02-09T23:19:03.485Z,4.28
2023-02-09T23:21:29.837Z,4.28
2023-02-09T23:23:56.196Z,4.29
2023-02-09T23:26:22.526Z,4.29
2023-02-09T23:28:48.865Z,4.29
2023-02-09T23:31:15.216Z,4.28
2023-02-09T23:33:41.568Z,4.26
2023-02-09T23:36:08.123Z,4.22
2023-02-09T23:38:34.682Z,4.24
2023-02-09T23:41:01.020Z,4.24
2023-02-09T23:43:27.415Z,4.20
2023-02-09T23:45:54.257Z,4.20
2023-02-09T23:48:20.754Z,4.20
2023-02-09T23:50:47.080Z,4.20
2023-02-09T23:53:13.412Z,4.20
2023-02-09T23:55:39.777Z,4.22
2023-02-09T23:58:06.102Z,4.17
